createdAt,value
2022-11-01T00:02:15.914Z,92.24
2022-11-01T00:07:22.068Z,92.00
2022-11-01T00:12:29.352Z,91.88
2022-11-01T00:17:35.469Z,91.92
2022-11-01T00:22:41.655Z,92.15
2022-11-01T00:27:49.351Z,91.95
2022-11-01T00:32:58.000Z,92.05
2022-11-01T00:38:04.951Z,92.49
2022-11-01T00:43:13.258Z,92.21
2022-11-01T00:48:19.526Z,92.55
2022-11-01T00:53:26.744Z,92.08
2022-11-01T00:58:35.771Z,92.23
2022-11-01T01:03:41.377Z,92.07
2022-11-01T01:08:47.227Z,91.96
2022-11-01T01:13:54.747Z,91.94
2022-11-01T01:19:01.431Z,91.70
2022-11-01T01:24:07.997Z,92.11
2022-11-01T01:29:17.488Z,92.30
2022-11-01T01:34:24.907Z,92.13
2022-11-01T01:39:33.835Z,92.44
2022-11-01T01:45:28.718Z,92.38
2022-11-01T01:50:40.364Z,92.50
2022-11-01T01:56:02.924Z,92.44
2022-11-01T02:01:11.095Z,92.09
2022-11-01T02:06:21.067Z,92.17
2022-11-01T02:11:28.961Z,92.44
2022-11-01T02:16:58.609Z,92.29
2022-11-01T02:22:11.702Z,92.11
2022-11-01T02:27:25.842Z,92.47
2022-11-01T02:32:55.824Z,92.18
2022-11-01T02:38:10.447Z,92.65
2022-11-01T02:43:21.854Z,92.17
2022-11-01T02:48:29.672Z,92.05
2022-11-01T02:53:36.889Z,92.03
2022-11-01T02:58:43.326Z,92.04
2022-11-01T03:03:53.804Z,92.29
2022-11-01T03:09:03.328Z,92.30
2022-11-01T03:14:23.751Z,91.75
2022-11-01T03:19:39.817Z,91.92
2022-11-01T03:24:50.721Z,91.62
2022-11-01T03:30:07.705Z,91.95
2022-11-01T03:35:22.962Z,92.21
2022-11-01T03:40:32.457Z,91.83
2022-11-01T03:45:42.119Z,92.15
2022-11-01T03:50:52.577Z,92.19
2022-11-01T03:55:58.497Z,92.32
2022-11-01T04:01:04.929Z,92.51
2022-11-01T04:06:13.952Z,92.63
2022-11-01T04:11:19.647Z,92.36
2022-11-01T04:16:43.000Z,92.57
2022-11-01T04:21:50.831Z,92.43
2022-11-01T04:26:57.136Z,92.48
2022-11-01T04:32:04.846Z,91.95
2022-11-01T04:37:15.535Z,92.15
2022-11-01T04:42:21.589Z,92.25
2022-11-01T04:47:28.618Z,92.73
2022-11-01T04:52:36.435Z,92.27
2022-11-01T04:57:43.191Z,92.37
2022-11-01T05:02:49.149Z,91.85
2022-11-01T05:08:03.293Z,91.96
2022-11-01T05:13:10.354Z,91.79
2022-11-01T05:18:18.231Z,92.24
2022-11-01T05:23:26.663Z,92.26
2022-11-01T05:28:33.673Z,92.66
2022-11-01T05:33:40.089Z,92.14
2022-11-01T05:38:47.940Z,92.29
2022-11-01T05:43:55.812Z,92.73
2022-11-01T05:49:02.232Z,92.97
2022-11-01T05:54:10.043Z,92.98
2022-11-01T05:59:19.109Z,92.77
2022-11-01T06:04:24.758Z,92.81
2022-11-01T06:09:32.648Z,92.98
2022-11-01T06:14:38.739Z,92.82
2022-11-01T06:19:45.365Z,92.91
2022-11-01T06:24:52.997Z,92.71
2022-11-01T06:29:59.523Z,93.05
2022-11-01T06:35:06.236Z,93.12
2022-11-01T06:40:15.177Z,93.53
2022-11-01T06:45:21.984Z,93.39
2022-11-01T06:50:28.219Z,93.34
2022-11-01T06:55:35.653Z,93.22
2022-11-01T07:00:41.944Z,93.49
2022-11-01T07:05:49.962Z,93.47
2022-11-01T07:10:57.723Z,93.59
2022-11-01T07:16:04.583Z,93.60
2022-11-01T07:21:12.385Z,93.25
2022-11-01T07:26:20.520Z,93.06
2022-11-01T07:31:26.566Z,92.93
2022-11-01T07:36:35.620Z,92.68
2022-11-01T07:41:43.288Z,92.96
2022-11-01T07:46:50.533Z,92.54
2022-11-01T07:52:01.733Z,93.01
2022-11-01T07:57:10.745Z,93.06
2022-11-01T08:02:18.012Z,93.25
2022-11-01T08:07:26.277Z,93.42
2022-11-01T08:12:34.347Z,93.38
2022-11-01T08:17:40.438Z,93.52
2022-11-01T08:28:04.201Z,93.53
2022-11-01T08:33:11.226Z,93.42
2022-11-01T08:38:18.897Z,93.43
2022-11-01T08:43:26.719Z,93.26
2022-11-01T08:48:32.780Z,93.29
2022-11-01T08:53:39.037Z,93.28
2022-11-01T08:58:46.685Z,93.40
2022-11-01T09:03:53.614Z,93.25
2022-11-01T09:09:00.699Z,93.29
2022-11-01T09:14:08.629Z,93.40
2022-11-01T09:19:14.917Z,93.23
2022-11-01T09:24:21.349Z,92.90
2022-11-01T09:29:31.373Z,93.34
2022-11-01T09:34:37.953Z,93.01
2022-11-01T09:39:44.127Z,92.77
2022-11-01T09:44:55.148Z,93.18
2022-11-01T09:50:08.756Z,92.92
2022-11-01T09:55:17.618Z,92.88
2022-11-01T10:00:25.684Z,92.68
2022-11-01T10:05:51.736Z,92.61
2022-11-01T10:11:19.988Z,92.76
2022-11-01T10:16:37.597Z,92.21
2022-11-01T10:21:51.329Z,92.38
2022-11-01T10:27:05.102Z,92.83
2022-11-01T10:32:28.497Z,92.69
2022-11-01T10:37:57.364Z,92.59
2022-11-01T10:43:17.127Z,92.58
2022-11-01T10:48:34.229Z,92.62
2022-11-01T10:53:53.106Z,92.59
2022-11-01T10:59:03.260Z,92.32
2022-11-01T11:04:17.021Z,92.39
2022-11-01T11:09:33.138Z,92.36
2022-11-01T11:14:41.814Z,92.13
2022-11-01T11:19:53.768Z,91.72
2022-11-01T11:25:03.356Z,91.85
2022-11-01T11:30:30.737Z,92.02
2022-11-01T11:36:00.733Z,92.21
2022-11-01T11:41:08.462Z,92.00
2022-11-01T11:46:21.672Z,91.63
2022-11-01T11:51:31.871Z,92.01
2022-11-01T11:56:38.979Z,91.13
2022-11-01T12:01:45.992Z,90.89
2022-11-01T12:06:54.402Z,90.57
2022-11-01T12:12:09.666Z,90.73
2022-11-01T12:17:33.454Z,90.85
2022-11-01T12:22:47.623Z,90.78
2022-11-01T12:28:01.790Z,90.65
2022-11-01T12:33:22.509Z,89.79
2022-11-01T12:38:43.511Z,90.05
2022-11-01T12:44:04.158Z,90.30
2022-11-01T12:49:22.703Z,90.17
2022-11-01T12:54:38.208Z,89.76
2022-11-01T12:59:47.244Z,89.85
2022-11-01T13:05:04.304Z,90.13
2022-11-01T13:10:23.870Z,89.97
2022-11-01T13:15:38.561Z,89.76
2022-11-01T13:21:01.315Z,90.19
2022-11-01T13:26:18.115Z,90.29
2022-11-01T13:31:38.849Z,90.91
2022-11-01T13:36:56.080Z,91.02
2022-11-01T13:42:13.300Z,91.28
2022-11-01T13:53:06.223Z,90.56
2022-11-01T13:58:20.543Z,90.21
2022-11-01T14:03:31.802Z,89.52
2022-11-01T14:08:41.031Z,89.87
2022-11-01T14:13:49.153Z,90.07
2022-11-01T14:19:24.911Z,89.61
2022-11-01T14:24:35.760Z,89.64
2022-11-01T14:29:44.065Z,89.71
2022-11-01T14:35:05.479Z,89.74
2022-11-01T14:40:32.357Z,89.66
2022-11-01T14:45:46.200Z,90.02
2022-11-01T14:51:02.846Z,90.11
2022-11-01T14:56:18.480Z,89.87
2022-11-01T15:01:26.701Z,89.46
2022-11-01T15:06:34.017Z,90.01
2022-11-01T15:11:41.007Z,90.37
2022-11-01T15:16:49.796Z,89.65
2022-11-01T15:22:03.658Z,89.91
2022-11-01T15:27:18.315Z,90.16
2022-11-01T15:32:30.926Z,90.23
2022-11-01T15:37:39.489Z,89.97
2022-11-01T15:42:57.128Z,89.81
2022-11-01T15:48:10.143Z,90.40
2022-11-01T15:53:24.200Z,89.74
2022-11-01T15:58:36.926Z,89.89
2022-11-01T16:03:51.300Z,90.32
2022-11-01T16:09:02.014Z,90.56
2022-11-01T16:14:24.389Z,90.74
2022-11-01T16:19:40.547Z,90.49
2022-11-01T16:24:48.186Z,90.88
2022-11-01T16:29:55.306Z,90.95
2022-11-01T16:35:32.164Z,91.05
2022-11-01T16:40:39.559Z,91.04
2022-11-01T16:45:45.825Z,90.81
2022-11-01T16:50:55.622Z,90.77
2022-11-01T16:56:34.880Z,90.93
2022-11-01T17:01:37.469Z,90.83
2022-11-01T17:06:45.217Z,90.62
2022-11-01T17:11:54.014Z,90.49
2022-11-01T17:17:07.440Z,90.64
2022-11-01T17:22:21.558Z,90.58
2022-11-01T17:27:29.092Z,90.19
2022-11-01T17:32:35.417Z,90.16
2022-11-01T17:37:44.211Z,90.41
2022-11-01T17:42:51.305Z,90.91
2022-11-01T17:48:17.453Z,90.69
2022-11-01T17:53:28.727Z,90.32
2022-11-01T17:58:36.291Z,90.29
2022-11-01T18:03:43.055Z,90.01
2022-11-01T18:08:54.171Z,90.38
2022-11-01T18:14:11.011Z,90.24
2022-11-01T18:19:48.266Z,90.41
2022-11-01T18:25:06.747Z,90.25
2022-11-01T18:30:18.269Z,90.29
2022-11-01T18:35:33.326Z,90.34
2022-11-01T18:40:56.361Z,90.30
2022-11-01T18:46:24.391Z,90.44
2022-11-01T18:51:35.078Z,90.66
2022-11-01T18:56:48.258Z,90.78
2022-11-01T19:02:04.548Z,91.08
2022-11-01T19:07:15.483Z,90.83
2022-11-01T19:12:33.872Z,90.89
2022-11-01T19:17:45.756Z,90.62
2022-11-01T19:22:59.885Z,90.64
2022-11-01T19:28:19.012Z,90.51
2022-11-01T19:33:35.130Z,90.79
2022-11-01T19:38:45.620Z,90.45
2022-11-01T19:43:57.079Z,90.56
2022-11-01T19:49:05.513Z,90.47
2022-11-01T19:54:14.485Z,90.62
2022-11-01T19:59:48.939Z,90.25
2022-11-01T20:05:01.751Z,90.50
2022-11-01T20:10:15.761Z,90.46
2022-11-01T20:15:25.723Z,90.05
2022-11-01T20:20:38.722Z,89.55
2022-11-01T20:25:49.236Z,90.06
2022-11-01T20:31:00.110Z,89.90
2022-11-01T20:36:11.328Z,90.10
2022-11-01T20:41:20.949Z,90.10
2022-11-01T20:46:31.282Z,89.87
2022-11-01T20:51:38.917Z,89.83
2022-11-01T20:56:47.133Z,90.18
2022-11-01T21:01:57.588Z,90.15
2022-11-01T21:07:07.207Z,90.07
2022-11-01T21:12:42.436Z,89.59
2022-11-01T21:17:54.270Z,90.01
2022-11-01T21:23:04.454Z,89.64
2022-11-01T21:28:24.935Z,89.58
2022-11-01T21:33:38.290Z,89.43
2022-11-01T21:38:48.566Z,89.08
2022-11-01T21:43:56.185Z,89.15
2022-11-01T21:49:12.896Z,89.21
2022-11-01T21:54:22.551Z,89.18
2022-11-01T21:59:30.372Z,89.42
2022-11-01T22:04:38.918Z,89.65
2022-11-01T22:09:45.405Z,89.09
2022-11-01T22:14:51.998Z,88.85
2022-11-01T22:20:00.308Z,88.95
2022-11-01T22:25:07.912Z,88.87
2022-11-01T22:30:15.403Z,89.31
2022-11-01T22:35:24.586Z,88.96
2022-11-01T22:40:31.053Z,89.07
2022-11-01T22:45:38.859Z,88.99
2022-11-01T22:50:48.111Z,88.95
2022-11-01T22:55:56.814Z,88.83
2022-11-01T23:01:12.543Z,88.91
2022-11-01T23:06:33.566Z,88.91
2022-11-01T23:11:58.380Z,88.66
2022-11-01T23:17:23.204Z,88.95
2022-11-01T23:22:35.723Z,89.01
2022-11-01T23:27:46.599Z,89.37
2022-11-01T23:32:53.096Z,89.54
2022-11-01T23:38:01.337Z,89.63
2022-11-01T23:43:24.911Z,89.74
2022-11-01T23:48:32.006Z,90.06
2022-11-01T23:53:41.851Z,89.84
2022-11-01T23:58:55.112Z,90.18
